Terminal Aerodrome Forecast
Issued by NWS Caribou, ME

Home | Current Version | Previous Version | Text Only | Print | Product List | Glossary On
Versions: 1 2 3 4 5 6 7 8 9 10 11 12 13 14 15 16 17 18 19 20 21
000
FTUS41 KCAR 051740
TAFCAR
TAF
KCAR 051740Z 0518/0618 31013G22KT P6SM FEW045
     FM052200 31009G17KT P6SM FEW045
     FM060000 32007KT P6SM FEW150
     FM060800 VRB03KT P6SM FEW220
     FM061600 25007KT P6SM SCT120=

USA.gov is the U.S. government's official web portal to all federal, state and local government web resources and services.